Time;durP1;ratioP1;P1;durP2;ratioP2;P2;SDS_P1;SDS_P2;PMS_P1;PMS_P2;Temp;Humidity;BMP_temperature;BMP_pressure;BME280_temperature;BME280_humidity;BME280_pressure;Samples;Min_cycle;Max_cycle;Signal;HPM_P1;HPM_P2
2023/03/10 00:00:44;;;;;;;6.18;4.28;;;;;;;;;;5063835;28;20382;-83
2023/03/10 00:03:10;;;;;;;5.93;3.60;;;;;;;;;;5071534;28;20388;-83
2023/03/10 00:05:37;;;;;;;4.40;3.45;;;;;;;;;;5062763;28;20467;-83
2023/03/10 00:08:04;;;;;;;4.60;3.30;;;;;;;;;;5074202;28;20379;-83
2023/03/10 00:10:30;;;;;;;4.63;3.15;;;;;;;;;;5072859;28;20426;-83
2023/03/10 00:12:56;;;;;;;5.32;3.42;;;;;;;;;;5081241;28;20407;-81
2023/03/10 00:15:22;;;;;;;4.97;3.30;;;;;;;;;;5081905;28;20426;-83
2023/03/10 00:17:49;;;;;;;4.63;3.67;;;;;;;;;;5076845;28;20372;-82
2023/03/10 00:20:15;;;;;;;4.65;3.58;;;;;;;;;;5073810;28;20376;-83
2023/03/10 00:22:41;;;;;;;5.57;3.78;;;;;;;;;;5073201;28;20434;-83
2023/03/10 00:25:08;;;;;;;6.15;4.03;;;;;;;;;;5072091;28;20900;-82
2023/03/10 00:27:34;;;;;;;7.15;3.58;;;;;;;;;;5071936;28;20384;-83
2023/03/10 00:30:00;;;;;;;5.40;3.33;;;;;;;;;;5069925;28;20772;-83
2023/03/10 00:32:26;;;;;;;6.10;3.87;;;;;;;;;;5070310;28;20482;-82
2023/03/10 00:34:52;;;;;;;4.35;3.42;;;;;;;;;;5070789;28;20376;-82
2023/03/10 00:37:18;;;;;;;6.20;3.85;;;;;;;;;;5071975;28;20433;-83
2023/03/10 00:39:45;;;;;;;5.20;3.78;;;;;;;;;;5071734;28;20463;-83
2023/03/10 00:42:11;;;;;;;4.88;3.40;;;;;;;;;;5070341;28;20392;-83
2023/03/10 00:44:37;;;;;;;5.57;3.63;;;;;;;;;;5071266;28;20402;-83
2023/03/10 00:47:03;;;;;;;5.78;3.28;;;;;;;;;;5071222;28;20471;-83
2023/03/10 00:49:29;;;;;;;4.90;3.38;;;;;;;;;;5053941;28;20427;-83
2023/03/10 00:51:55;;;;;;;4.40;3.20;;;;;;;;;;5071020;28;20887;-83
2023/03/10 00:54:20;;;;;;;4.43;3.10;;;;;;;;;;5063643;28;20378;-83
2023/03/10 00:56:46;;;;;;;5.55;3.53;;;;;;;;;;5055842;28;20873;-83
2023/03/10 00:59:12;;;;;;;5.40;3.23;;;;;;;;;;5057626;28;20555;-83
2023/03/10 01:01:40;;;;;;;5.20;3.28;;;;;;;;;;5035229;28;20730;-82
2023/03/10 01:04:07;;;;;;;6.23;3.33;;;;;;;;;;5032062;28;20555;-83
2023/03/10 01:06:33;;;;;;;4.75;3.05;;;;;;;;;;5032303;28;20395;-84
2023/03/10 01:09:00;;;;;;;5.10;3.25;;;;;;;;;;5033724;28;20387;-82
2023/03/10 01:11:26;;;;;;;6.50;3.05;;;;;;;;;;5036265;28;20397;-82
2023/03/10 01:13:53;;;;;;;4.70;3.10;;;;;;;;;;5032222;28;20403;-82
2023/03/10 01:16:19;;;;;;;5.38;2.90;;;;;;;;;;5032835;28;20390;-82
2023/03/10 01:18:45;;;;;;;4.63;3.10;;;;;;;;;;5035100;28;20929;-82
2023/03/10 01:21:15;;;;;;;3.95;2.45;;;;;;;;;;5029945;28;20383;-82
2023/03/10 01:23:41;;;;;;;4.63;3.00;;;;;;;;;;5043508;28;20363;-83
2023/03/10 01:26:07;;;;;;;4.60;2.67;;;;;;;;;;5070841;28;20879;-83
2023/03/10 01:28:33;;;;;;;5.43;3.00;;;;;;;;;;5070837;28;20390;-82
2023/03/10 01:30:59;;;;;;;4.67;2.83;;;;;;;;;;5070568;28;20408;-83
2023/03/10 01:33:25;;;;;;;5.93;2.90;;;;;;;;;;5070601;28;20407;-83
2023/03/10 01:35:51;;;;;;;3.97;2.50;;;;;;;;;;5070821;28;20383;-83
2023/03/10 01:38:17;;;;;;;4.80;2.00;;;;;;;;;;5070760;28;20376;-83
2023/03/10 01:40:48;;;;;;;3.33;1.98;;;;;;;;;;5070638;28;20857;-83
2023/03/10 01:43:20;;;;;;;3.33;1.77;;;;;;;;;;5070742;28;20437;-83
2023/03/10 01:45:46;;;;;;;4.95;2.10;;;;;;;;;;5071240;28;20388;-83
2023/03/10 01:48:13;;;;;;;3.05;1.80;;;;;;;;;;5060914;28;20383;-83
2023/03/10 01:50:40;;;;;;;4.57;1.95;;;;;;;;;;5070934;28;20401;-82
2023/03/10 01:53:06;;;;;;;3.42;1.77;;;;;;;;;;5074371;28;20407;-83
2023/03/10 01:55:36;;;;;;;3.72;1.77;;;;;;;;;;5074261;28;20384;-83
2023/03/10 01:58:05;;;;;;;4.20;1.67;;;;;;;;;;5074258;28;20388;-83
2023/03/10 02:00:31;;;;;;;3.03;1.42;;;;;;;;;;5072543;28;20918;-82
2023/03/10 02:03:15;;;;;;;3.55;1.40;;;;;;;;;;5074122;28;20512;-83
2023/03/10 02:05:44;;;;;;;5.60;1.58;;;;;;;;;;5058953;28;20446;-83
2023/03/10 02:08:10;;;;;;;4.18;1.50;;;;;;;;;;5071780;28;20860;-83
2023/03/10 02:10:37;;;;;;;2.78;1.00;;;;;;;;;;5069233;28;20385;-83
2023/03/10 02:13:03;;;;;;;2.17;1.13;;;;;;;;;;5066268;28;20942;-82
2023/03/10 02:15:29;;;;;;;3.53;1.17;;;;;;;;;;5072656;28;20783;-83
2023/03/10 02:17:55;;;;;;;2.43;1.10;;;;;;;;;;5073821;28;20383;-83
2023/03/10 02:20:21;;;;;;;3.60;1.55;;;;;;;;;;5073799;28;20389;-83
2023/03/10 02:22:48;;;;;;;2.43;1.23;;;;;;;;;;5064786;28;20423;-83
2023/03/10 02:25:20;;;;;;;3.38;1.30;;;;;;;;;;5073265;28;20384;-83
2023/03/10 02:27:47;;;;;;;2.15;1.08;;;;;;;;;;5068143;28;20390;-83
2023/03/10 02:30:15;;;;;;;2.97;1.10;;;;;;;;;;5066642;28;20428;-84
2023/03/10 02:32:43;;;;;;;2.78;0.88;;;;;;;;;;5073654;28;20949;-85
2023/03/10 02:35:09;;;;;;;1.55;0.65;;;;;;;;;;5073694;28;20853;-84
2023/03/10 02:37:36;;;;;;;1.40;0.50;;;;;;;;;;5073627;28;20408;-85
2023/03/10 02:40:03;;;;;;;1.10;0.67;;;;;;;;;;5069676;28;20396;-85
2023/03/10 02:42:32;;;;;;;0.70;0.50;;;;;;;;;;5073612;28;20378;-84
2023/03/10 02:44:58;;;;;;;1.43;0.40;;;;;;;;;;5073463;28;20402;-85
2023/03/10 02:47:24;;;;;;;0.90;0.43;;;;;;;;;;5053987;28;20389;-84
2023/03/10 02:49:50;;;;;;;0.57;0.30;;;;;;;;;;5066735;28;20384;-85
2023/03/10 02:52:25;;;;;;;1.00;0.40;;;;;;;;;;5073221;28;20404;-84
2023/03/10 02:54:51;;;;;;;0.65;0.43;;;;;;;;;;5073410;28;20861;-84
2023/03/10 02:57:17;;;;;;;1.02;0.50;;;;;;;;;;5071499;28;20391;-85
2023/03/10 02:59:43;;;;;;;0.60;0.30;;;;;;;;;;5073010;28;20392;-84
2023/03/10 03:02:09;;;;;;;0.50;0.30;;;;;;;;;;5073109;28;20429;-85
2023/03/10 03:04:35;;;;;;;1.13;0.50;;;;;;;;;;5073003;28;20917;-84
2023/03/10 03:07:01;;;;;;;1.25;0.60;;;;;;;;;;5058412;28;20435;-84
2023/03/10 03:09:27;;;;;;;1.00;0.65;;;;;;;;;;5072876;28;20384;-84
2023/03/10 03:11:53;;;;;;;1.23;0.53;;;;;;;;;;5072883;28;20437;-84
2023/03/10 03:14:19;;;;;;;0.68;0.50;;;;;;;;;;5071727;28;20741;-83
2023/03/10 03:16:45;;;;;;;2.00;0.60;;;;;;;;;;5063877;28;20416;-83
2023/03/10 03:19:11;;;;;;;1.20;0.60;;;;;;;;;;5068871;28;20375;-83
2023/03/10 03:21:37;;;;;;;1.00;0.60;;;;;;;;;;5059612;28;20388;-83
2023/03/10 03:24:03;;;;;;;1.00;0.70;;;;;;;;;;5072278;28;20420;-83
2023/03/10 03:26:29;;;;;;;1.63;0.55;;;;;;;;;;5059169;28;20376;-83
2023/03/10 03:28:56;;;;;;;0.98;0.50;;;;;;;;;;5060100;28;20876;-83
2023/03/10 03:31:22;;;;;;;1.25;0.50;;;;;;;;;;5045239;28;20575;-83
2023/03/10 03:33:48;;;;;;;0.63;0.50;;;;;;;;;;5044356;28;20498;-83
2023/03/10 03:36:14;;;;;;;1.00;0.40;;;;;;;;;;5064472;28;20372;-82
2023/03/10 03:38:40;;;;;;;0.73;0.30;;;;;;;;;;5072192;28;20371;-82
2023/03/10 03:41:07;;;;;;;0.53;0.40;;;;;;;;;;5084023;28;20450;-82
2023/03/10 03:43:33;;;;;;;1.40;0.40;;;;;;;;;;5083100;28;20411;-82
2023/03/10 03:46:00;;;;;;;0.77;0.40;;;;;;;;;;5076915;28;20376;-83
2023/03/10 03:48:26;;;;;;;1.10;0.40;;;;;;;;;;5074104;28;20386;-82
2023/03/10 03:50:52;;;;;;;0.52;0.30;;;;;;;;;;5073341;28;20471;-83
2023/03/10 03:53:18;;;;;;;1.40;0.40;;;;;;;;;;5072819;28;20514;-83
2023/03/10 03:55:44;;;;;;;1.00;0.50;;;;;;;;;;5072388;28;20452;-83
2023/03/10 03:58:10;;;;;;;0.77;0.60;;;;;;;;;;5072483;28;20853;-83
2023/03/10 04:00:38;;;;;;;1.13;0.40;;;;;;;;;;5072367;28;20386;-83
2023/03/10 04:03:04;;;;;;;0.55;0.38;;;;;;;;;;5058890;28;20382;-83
2023/03/10 04:05:30;;;;;;;0.50;0.20;;;;;;;;;;5070742;28;20737;-83
2023/03/10 04:07:56;;;;;;;0.77;0.40;;;;;;;;;;5072088;28;20419;-82
2023/03/10 04:10:22;;;;;;;0.60;0.30;;;;;;;;;;5070988;28;20728;-82
2023/03/10 04:12:48;;;;;;;0.60;0.38;;;;;;;;;;5071936;28;20403;-82
2023/03/10 04:15:14;;;;;;;1.00;0.40;;;;;;;;;;5071864;28;20741;-82
2023/03/10 04:17:41;;;;;;;0.50;0.30;;;;;;;;;;5054374;28;20372;-83
2023/03/10 04:20:07;;;;;;;1.10;0.50;;;;;;;;;;5068395;28;20384;-82
2023/03/10 04:22:34;;;;;;;1.70;0.82;;;;;;;;;;5030029;28;20884;-83
2023/03/10 04:25:00;;;;;;;0.82;0.30;;;;;;;;;;5038727;28;20553;-83
2023/03/10 04:27:26;;;;;;;0.80;0.40;;;;;;;;;;5038042;28;20483;-83
2023/03/10 04:29:52;;;;;;;0.68;0.40;;;;;;;;;;5034954;28;20396;-83
2023/03/10 04:32:18;;;;;;;0.40;0.30;;;;;;;;;;5031123;28;20422;-83
2023/03/10 04:34:44;;;;;;;1.05;0.30;;;;;;;;;;5035633;28;20372;-83
2023/03/10 04:37:10;;;;;;;0.55;0.30;;;;;;;;;;5035379;28;20813;-83
2023/03/10 04:39:36;;;;;;;0.93;0.60;;;;;;;;;;5036529;28;20387;-83
2023/03/10 04:42:02;;;;;;;0.57;0.30;;;;;;;;;;5033648;28;20374;-83
2023/03/10 04:44:28;;;;;;;0.73;0.47;;;;;;;;;;5032932;28;20437;-83
2023/03/10 04:46:54;;;;;;;0.60;0.30;;;;;;;;;;5033566;28;20375;-83
2023/03/10 04:49:20;;;;;;;0.50;0.30;;;;;;;;;;5030200;28;20722;-83
2023/03/10 04:51:46;;;;;;;1.17;0.38;;;;;;;;;;5038292;28;20884;-83
2023/03/10 04:54:12;;;;;;;0.52;0.35;;;;;;;;;;5034847;28;20472;-81
2023/03/10 04:56:38;;;;;;;0.90;0.50;;;;;;;;;;5040452;28;20406;-83
2023/03/10 04:59:04;;;;;;;0.38;0.38;;;;;;;;;;5032944;28;20725;-81
2023/03/10 05:01:31;;;;;;;0.52;0.35;;;;;;;;;;5058620;28;20372;-81
2023/03/10 05:03:59;;;;;;;0.43;0.30;;;;;;;;;;5071252;28;20872;-81
2023/03/10 05:06:25;;;;;;;1.20;0.50;;;;;;;;;;5071237;28;20388;-81
2023/03/10 05:08:51;;;;;;;0.68;0.47;;;;;;;;;;5058831;28;20411;-81
2023/03/10 05:11:17;;;;;;;0.47;0.43;;;;;;;;;;5037008;28;20398;-82
2023/03/10 05:13:43;;;;;;;0.45;0.28;;;;;;;;;;5041579;28;20442;-82
2023/03/10 05:16:16;;;;;;;0.80;0.50;;;;;;;;;;5051159;28;20896;-82
2023/03/10 05:18:42;;;;;;;3.72;2.55;;;;;;;;;;5061471;28;20384;-82
2023/03/10 05:21:08;;;;;;;2.92;2.35;;;;;;;;;;5062774;28;20383;-82
2023/03/10 05:23:34;;;;;;;1.50;1.35;;;;;;;;;;5075040;28;20380;-82
2023/03/10 05:26:04;;;;;;;1.48;1.30;;;;;;;;;;5074890;28;20406;-82
2023/03/10 05:28:30;;;;;;;1.33;1.00;;;;;;;;;;5074877;28;20405;-82
2023/03/10 05:30:56;;;;;;;1.20;0.80;;;;;;;;;;5074505;28;20974;-82
2023/03/10 05:33:22;;;;;;;1.23;0.77;;;;;;;;;;5073511;28;20487;-82
2023/03/10 05:35:48;;;;;;;2.05;1.20;;;;;;;;;;5073405;28;20392;-82
2023/03/10 05:38:14;;;;;;;1.90;0.90;;;;;;;;;;5074990;28;20384;-82
2023/03/10 05:40:41;;;;;;;7.63;5.47;;;;;;;;;;5059268;28;20426;-82
2023/03/10 05:43:08;;;;;;;1.77;1.45;;;;;;;;;;5056594;28;20425;-82
2023/03/10 05:45:33;;;;;;;2.33;1.92;;;;;;;;;;5064518;28;20880;-83
2023/03/10 05:48:00;;;;;;;1.93;1.67;;;;;;;;;;5033806;28;20389;-83
2023/03/10 05:50:26;;;;;;;1.85;1.45;;;;;;;;;;5059549;28;20834;-83
2023/03/10 05:52:52;;;;;;;1.10;1.00;;;;;;;;;;5067137;28;20446;-83
2023/03/10 05:55:19;;;;;;;1.17;1.00;;;;;;;;;;5071608;28;20395;-83
2023/03/10 05:57:45;;;;;;;1.50;0.90;;;;;;;;;;5063084;28;20372;-83
2023/03/10 06:00:12;;;;;;;1.23;0.80;;;;;;;;;;5074130;28;20368;-83
2023/03/10 06:02:38;;;;;;;1.73;1.10;;;;;;;;;;5067998;28;20484;-83
2023/03/10 06:05:05;;;;;;;1.77;0.80;;;;;;;;;;5069356;28;20434;-82
2023/03/10 06:07:32;;;;;;;2.97;1.50;;;;;;;;;;5072664;28;20482;-81
2023/03/10 06:09:58;;;;;;;2.72;1.73;;;;;;;;;;5074113;28;20384;-81
2023/03/10 06:12:24;;;;;;;1.63;1.15;;;;;;;;;;5060853;28;20895;-81
2023/03/10 06:14:50;;;;;;;1.40;0.65;;;;;;;;;;5074022;28;20376;-83
2023/03/10 06:17:16;;;;;;;0.38;0.35;;;;;;;;;;5056691;28;20460;-84
2023/03/10 06:19:42;;;;;;;0.70;0.30;;;;;;;;;;5072611;28;20419;-82
2023/03/10 06:22:08;;;;;;;0.70;0.43;;;;;;;;;;5061420;28;20389;-81
2023/03/10 06:24:34;;;;;;;0.90;0.77;;;;;;;;;;5071440;28;20380;-81
2023/03/10 06:27:00;;;;;;;1.15;1.05;;;;;;;;;;5072240;28;20379;-81
2023/03/10 06:29:26;;;;;;;0.68;0.60;;;;;;;;;;5072367;28;20372;-82
2023/03/10 06:31:52;;;;;;;0.93;0.75;;;;;;;;;;5072032;28;20407;-82
2023/03/10 06:34:18;;;;;;;1.23;0.80;;;;;;;;;;5072826;28;20412;-82
2023/03/10 06:36:44;;;;;;;1.17;0.80;;;;;;;;;;5073598;28;20392;-82
2023/03/10 06:39:10;;;;;;;0.65;0.50;;;;;;;;;;5073641;28;20384;-81
2023/03/10 06:41:37;;;;;;;0.70;0.50;;;;;;;;;;5060381;28;21108;-82
2023/03/10 06:44:03;;;;;;;0.60;0.40;;;;;;;;;;5072295;28;20392;-82
2023/03/10 06:46:29;;;;;;;0.47;0.30;;;;;;;;;;5059992;28;20397;-82
2023/03/10 06:48:55;;;;;;;0.55;0.30;;;;;;;;;;5073447;28;20513;-81
2023/03/10 06:51:22;;;;;;;0.28;0.28;;;;;;;;;;5060494;28;20373;-81
2023/03/10 06:53:49;;;;;;;0.30;0.30;;;;;;;;;;5059325;28;20415;-82
2023/03/10 06:56:16;;;;;;;0.32;0.25;;;;;;;;;;5059630;28;20872;-82
2023/03/10 06:58:43;;;;;;;0.75;0.20;;;;;;;;;;5071023;28;20380;-82
2023/03/10 07:01:18;;;;;;;0.98;0.40;;;;;;;;;;5052129;28;20426;-82
2023/03/10 07:03:44;;;;;;;0.43;0.20;;;;;;;;;;5074023;28;20437;-82
2023/03/10 07:06:10;;;;;;;1.02;0.30;;;;;;;;;;5077551;28;20857;-82
2023/03/10 07:08:36;;;;;;;1.40;0.40;;;;;;;;;;5076039;28;20385;-84
2023/03/10 07:11:02;;;;;;;1.20;0.40;;;;;;;;;;5081038;28;20384;-83
2023/03/10 07:13:28;;;;;;;0.73;0.30;;;;;;;;;;5060402;28;20498;-85
2023/03/10 07:15:54;;;;;;;2.20;0.50;;;;;;;;;;5072494;28;20391;-84
2023/03/10 07:18:20;;;;;;;0.60;0.40;;;;;;;;;;5065397;28;20403;-85
2023/03/10 07:20:46;;;;;;;1.02;0.47;;;;;;;;;;5073489;28;20383;-86
2023/03/10 07:23:13;;;;;;;0.98;0.43;;;;;;;;;;5073481;28;20402;-85
2023/03/10 07:25:39;;;;;;;0.32;0.30;;;;;;;;;;5073204;28;20379;-84
2023/03/10 07:28:06;;;;;;;1.80;0.30;;;;;;;;;;5063746;28;20374;-84
2023/03/10 07:30:33;;;;;;;0.43;0.30;;;;;;;;;;5067202;28;20414;-84
2023/03/10 07:32:59;;;;;;;0.57;0.20;;;;;;;;;;5071098;28;20422;-83
2023/03/10 07:35:25;;;;;;;0.60;0.40;;;;;;;;;;5059648;28;20474;-83
2023/03/10 07:37:51;;;;;;;0.70;0.22;;;;;;;;;;5072509;28;20497;-82
2023/03/10 07:40:17;;;;;;;0.80;0.50;;;;;;;;;;5072467;28;20376;-83
2023/03/10 07:42:43;;;;;;;0.68;0.30;;;;;;;;;;5072540;28;20383;-83
2023/03/10 07:45:10;;;;;;;0.60;0.30;;;;;;;;;;5072474;28;20470;-83
2023/03/10 07:47:36;;;;;;;0.55;0.20;;;;;;;;;;5072399;28;20895;-83
2023/03/10 07:50:02;;;;;;;0.45;0.25;;;;;;;;;;5067334;28;20389;-83
2023/03/10 07:52:28;;;;;;;0.27;0.20;;;;;;;;;;5061768;28;21026;-80
2023/03/10 07:54:54;;;;;;;0.40;0.20;;;;;;;;;;5071236;28;20394;-80
2023/03/10 07:57:20;;;;;;;0.57;0.20;;;;;;;;;;5072191;28;20392;-81
2023/03/10 07:59:46;;;;;;;0.50;0.20;;;;;;;;;;5070714;28;20400;-80
2023/03/10 08:02:13;;;;;;;0.63;0.20;;;;;;;;;;5072240;28;20428;-79
2023/03/10 08:04:40;;;;;;;1.50;0.30;;;;;;;;;;5072023;28;20802;-79
2023/03/10 08:07:07;;;;;;;0.50;0.20;;;;;;;;;;5067343;28;20379;-79
2023/03/10 08:09:33;;;;;;;0.70;0.20;;;;;;;;;;5067576;28;20387;-80
2023/03/10 08:11:59;;;;;;;0.20;0.20;;;;;;;;;;5070362;28;20387;-79
2023/03/10 08:14:25;;;;;;;0.30;0.30;;;;;;;;;;5059163;28;20495;-80
2023/03/10 08:16:52;;;;;;;1.00;0.20;;;;;;;;;;5071797;28;20729;-80
2023/03/10 08:19:18;;;;;;;0.68;0.20;;;;;;;;;;5071730;28;20857;-80
2023/03/10 08:21:44;;;;;;;0.77;0.30;;;;;;;;;;5071710;28;20415;-80
2023/03/10 08:24:10;;;;;;;0.63;0.40;;;;;;;;;;5071621;28;20376;-79
2023/03/10 08:26:36;;;;;;;0.75;0.40;;;;;;;;;;5067887;28;20388;-80
2023/03/10 08:29:02;;;;;;;1.80;0.70;;;;;;;;;;5071550;28;20387;-80
2023/03/10 08:31:28;;;;;;;1.43;0.40;;;;;;;;;;5071418;28;20498;-82
2023/03/10 08:33:55;;;;;;;1.63;0.60;;;;;;;;;;5062619;28;20411;-83
2023/03/10 08:36:22;;;;;;;1.35;0.60;;;;;;;;;;5071065;28;20375;-83
2023/03/10 08:38:50;;;;;;;2.17;0.70;;;;;;;;;;5067419;28;20931;-83
2023/03/10 08:41:20;;;;;;;2.03;0.60;;;;;;;;;;5061766;28;20387;-82
2023/03/10 08:43:47;;;;;;;1.90;0.60;;;;;;;;;;5057504;28;20395;-82
2023/03/10 08:46:13;;;;;;;1.27;0.52;;;;;;;;;;5066156;28;20391;-82
2023/03/10 08:48:39;;;;;;;1.50;0.50;;;;;;;;;;5071370;28;20891;-83
2023/03/10 08:51:05;;;;;;;2.00;0.60;;;;;;;;;;5067633;28;20859;-82
2023/03/10 08:53:32;;;;;;;1.63;1.02;;;;;;;;;;5043263;28;20400;-83
2023/03/10 08:55:58;;;;;;;1.33;0.85;;;;;;;;;;5070719;28;20449;-85
2023/03/10 08:58:24;;;;;;;1.00;0.30;;;;;;;;;;5071264;28;20438;-83
2023/03/10 09:00:50;;;;;;;0.80;0.40;;;;;;;;;;5071270;28;20406;-82
2023/03/10 09:03:16;;;;;;;0.82;0.30;;;;;;;;;;5071272;28;20389;-83
2023/03/10 09:05:42;;;;;;;0.80;0.38;;;;;;;;;;5071234;28;20733;-83
2023/03/10 09:08:09;;;;;;;0.82;0.70;;;;;;;;;;5065954;28;20381;-82
2023/03/10 09:10:35;;;;;;;0.40;0.30;;;;;;;;;;5055684;28;20790;-83
2023/03/10 09:13:02;;;;;;;2.08;0.52;;;;;;;;;;5071041;28;20443;-83
2023/03/10 09:15:27;;;;;;;1.00;0.32;;;;;;;;;;5071048;28;20861;-83
2023/03/10 09:17:54;;;;;;;1.20;0.30;;;;;;;;;;5071287;28;20398;-83
2023/03/10 09:20:24;;;;;;;1.27;0.40;;;;;;;;;;5071130;28;20409;-84
2023/03/10 09:22:51;;;;;;;1.67;0.60;;;;;;;;;;5071066;28;20425;-84
2023/03/10 09:25:17;;;;;;;1.13;0.60;;;;;;;;;;5071147;28;20426;-83
2023/03/10 09:27:43;;;;;;;1.67;0.47;;;;;;;;;;5066621;28;20448;-83
2023/03/10 09:30:09;;;;;;;1.80;0.50;;;;;;;;;;5063763;28;20408;-85
2023/03/10 09:32:35;;;;;;;0.97;0.50;;;;;;;;;;5070881;28;20407;-83
2023/03/10 09:35:01;;;;;;;1.60;0.68;;;;;;;;;;5071191;28;20380;-83
2023/03/10 09:37:27;;;;;;;0.70;0.50;;;;;;;;;;5062595;28;20745;-83
2023/03/10 09:39:53;;;;;;;0.70;0.40;;;;;;;;;;5069665;28;20881;-83
2023/03/10 09:42:28;;;;;;;1.83;0.40;;;;;;;;;;5070725;28;20437;-82
2023/03/10 09:45:00;;;;;;;1.15;0.40;;;;;;;;;;5070936;28;20388;-82
2023/03/10 09:47:41;;;;;;;1.05;0.40;;;;;;;;;;5069515;28;20940;-83
2023/03/10 09:50:17;;;;;;;1.60;0.40;;;;;;;;;;5052900;28;20417;-82
2023/03/10 09:52:52;;;;;;;1.23;0.38;;;;;;;;;;5066739;28;20399;-83
2023/03/10 09:55:20;;;;;;;0.88;0.30;;;;;;;;;;5070887;28;20380;-82
2023/03/10 09:57:48;;;;;;;1.00;0.43;;;;;;;;;;5070697;28;20462;-83
2023/03/10 10:00:19;;;;;;;1.15;0.40;;;;;;;;;;5070716;28;20806;-82
2023/03/10 10:02:47;;;;;;;1.60;0.40;;;;;;;;;;5070622;28;20887;-83
2023/03/10 10:05:22;;;;;;;1.40;0.45;;;;;;;;;;5069307;28;20807;-82
2023/03/10 10:07:54;;;;;;;1.48;0.50;;;;;;;;;;5071241;28;20406;-82
2023/03/10 10:10:25;;;;;;;2.00;0.73;;;;;;;;;;5074232;28;20376;-82
2023/03/10 10:12:53;;;;;;;1.80;0.55;;;;;;;;;;5074026;28;20756;-83
2023/03/10 10:15:21;;;;;;;1.88;0.55;;;;;;;;;;5074036;28;20380;-82
2023/03/10 10:18:06;;;;;;;2.78;0.70;;;;;;;;;;5074123;28;20455;-82
2023/03/10 10:20:44;;;;;;;2.35;0.90;;;;;;;;;;5073840;28;20845;-82
2023/03/10 10:23:24;;;;;;;2.38;0.90;;;;;;;;;;5073981;28;20384;-82
2023/03/10 10:25:50;;;;;;;2.95;0.80;;;;;;;;;;5073999;28;20371;-82
2023/03/10 10:28:21;;;;;;;2.38;0.77;;;;;;;;;;5056671;28;20447;-82
2023/03/10 10:30:48;;;;;;;2.35;0.77;;;;;;;;;;5073854;28;20416;-82
2023/03/10 10:33:15;;;;;;;3.20;0.90;;;;;;;;;;5074090;28;20408;-82
2023/03/10 10:35:41;;;;;;;2.28;0.98;;;;;;;;;;5064375;28;20389;-81
2023/03/10 10:38:10;;;;;;;2.30;0.80;;;;;;;;;;5073374;28;20375;-82
2023/03/10 10:41:06;;;;;;;2.35;0.65;;;;;;;;;;5057706;28;20863;-81
2023/03/10 10:43:39;;;;;;;2.30;0.70;;;;;;;;;;5058535;28;20939;-82
2023/03/10 10:46:06;;;;;;;2.58;0.90;;;;;;;;;;5063516;28;20860;-82
2023/03/10 10:48:37;;;;;;;2.70;1.48;;;;;;;;;;5074284;28;20849;-82
2023/03/10 10:51:04;;;;;;;4.20;1.35;;;;;;;;;;5073761;28;20406;-82
2023/03/10 10:53:33;;;;;;;2.72;1.05;;;;;;;;;;5034193;28;20411;-81
2023/03/10 10:56:19;;;;;;;2.15;1.00;;;;;;;;;;5058151;28;20392;-81
2023/03/10 10:58:59;;;;;;;2.35;0.90;;;;;;;;;;5060877;28;20380;-81
2023/03/10 11:01:25;;;;;;;3.33;0.80;;;;;;;;;;5055022;28;20383;-82
2023/03/10 11:04:03;;;;;;;2.53;1.10;;;;;;;;;;5078053;22;20544;-79
2023/03/10 11:06:36;;;;;;;2.92;0.90;;;;;;;;;;5051540;28;20393;-79
2023/03/10 11:09:10;;;;;;;1.63;0.77;;;;;;;;;;5050163;28;20386;-79
2023/03/10 11:11:39;;;;;;;3.25;1.00;;;;;;;;;;5050889;28;20441;-79
2023/03/10 11:14:17;;;;;;;2.35;1.17;;;;;;;;;;5053179;28;20471;-79
2023/03/10 11:17:01;;;;;;;3.65;1.40;;;;;;;;;;5049715;28;20378;-78
2023/03/10 11:19:51;;;;;;;2.85;1.10;;;;;;;;;;5052327;28;20377;-78
2023/03/10 11:22:26;;;;;;;2.35;0.93;;;;;;;;;;5052763;28;20375;-78
2023/03/10 11:24:58;;;;;;;2.97;1.23;;;;;;;;;;5052618;28;20366;-78
2023/03/10 11:27:43;;;;;;;2.35;1.08;;;;;;;;;;5050731;28;20382;-79
2023/03/10 11:30:13;;;;;;;2.35;1.00;;;;;;;;;;5048451;28;20873;-78
2023/03/10 11:32:42;;;;;;;2.53;1.00;;;;;;;;;;5053307;28;20401;-78
2023/03/10 11:35:18;;;;;;;3.00;1.15;;;;;;;;;;5073640;28;20408;-78
2023/03/10 11:37:46;;;;;;;2.72;0.80;;;;;;;;;;5056291;28;20461;-78
2023/03/10 11:40:17;;;;;;;1.67;1.00;;;;;;;;;;5053094;28;20396;-78
2023/03/10 11:42:49;;;;;;;3.30;1.13;;;;;;;;;;5051527;28;20427;-77
2023/03/10 11:45:33;;;;;;;1.90;1.08;;;;;;;;;;5052557;28;20412;-77
2023/03/10 11:47:59;;;;;;;3.17;1.13;;;;;;;;;;5052107;28;20393;-78
2023/03/10 11:50:38;;;;;;;2.35;0.82;;;;;;;;;;5051914;28;20457;-79
2023/03/10 11:53:09;;;;;;;2.00;1.10;;;;;;;;;;5046366;28;20413;-78
2023/03/10 11:55:35;;;;;;;1.80;1.15;;;;;;;;;;5050974;28;20394;-78
2023/03/10 11:58:03;;;;;;;2.35;0.80;;;;;;;;;;5049078;28;20385;-78
2023/03/10 12:00:28;;;;;;;2.10;0.87;;;;;;;;;;5051655;28;20381;-78
2023/03/10 12:03:03;;;;;;;1.45;0.68;;;;;;;;;;5050177;28;20897;-78
2023/03/10 12:05:40;;;;;;;1.23;0.50;;;;;;;;;;5051886;28;20389;-78
2023/03/10 12:08:06;;;;;;;1.40;0.50;;;;;;;;;;5050789;28;20444;-78
2023/03/10 12:10:35;;;;;;;1.10;0.57;;;;;;;;;;5051776;28;20375;-79
2023/03/10 12:13:01;;;;;;;0.88;0.40;;;;;;;;;;5049838;28;20413;-78
2023/03/10 12:15:31;;;;;;;1.73;0.80;;;;;;;;;;5041541;28;20462;-76
2023/03/10 12:17:57;;;;;;;1.90;0.50;;;;;;;;;;5058716;28;20374;-78
2023/03/10 12:20:26;;;;;;;0.88;0.30;;;;;;;;;;5037909;28;20389;-78
2023/03/10 12:22:53;;;;;;;1.20;0.40;;;;;;;;;;5053568;28;20373;-77
2023/03/10 12:25:39;;;;;;;0.93;0.50;;;;;;;;;;5049067;28;20408;-79
2023/03/10 12:28:11;;;;;;;0.90;0.40;;;;;;;;;;5033017;28;20425;-78
2023/03/10 12:30:44;;;;;;;1.20;0.70;;;;;;;;;;5044753;28;20384;-78
2023/03/10 12:33:32;;;;;;;0.60;0.55;;;;;;;;;;5050212;28;20409;-78
2023/03/10 12:36:08;;;;;;;1.00;0.80;;;;;;;;;;5034717;28;20383;-78
2023/03/10 12:38:46;;;;;;;0.80;0.50;;;;;;;;;;5046354;28;20405;-78
2023/03/10 12:41:14;;;;;;;0.95;0.50;;;;;;;;;;5051265;28;20412;-78
2023/03/10 12:43:42;;;;;;;1.23;0.90;;;;;;;;;;5051233;28;20373;-78
2023/03/10 12:46:11;;;;;;;2.10;0.82;;;;;;;;;;5051193;28;20385;-78
2023/03/10 12:48:40;;;;;;;1.20;1.10;;;;;;;;;;5051245;28;20384;-78
2023/03/10 12:51:11;;;;;;;0.90;0.60;;;;;;;;;;5051192;28;20652;-78
2023/03/10 12:53:43;;;;;;;0.80;0.70;;;;;;;;;;5050994;28;20401;-78
2023/03/10 12:56:12;;;;;;;1.00;0.90;;;;;;;;;;5051081;28;20384;-78
2023/03/10 12:58:40;;;;;;;1.60;0.77;;;;;;;;;;5051164;28;20962;-79
2023/03/10 13:01:07;;;;;;;1.33;1.10;;;;;;;;;;5051001;28;20388;-78
2023/03/10 13:03:41;;;;;;;1.45;0.70;;;;;;;;;;5056868;28;20411;-77
2023/03/10 13:06:07;;;;;;;1.90;0.55;;;;;;;;;;5056753;28;20392;-78
2023/03/10 13:08:33;;;;;;;0.40;0.32;;;;;;;;;;5049329;28;20396;-78
2023/03/10 13:11:00;;;;;;;0.60;0.60;;;;;;;;;;5051102;28;20746;-78
2023/03/10 13:13:31;;;;;;;0.47;0.37;;;;;;;;;;5050779;28;20409;-77
2023/03/10 13:16:01;;;;;;;0.63;0.30;;;;;;;;;;5051002;28;20889;-77
2023/03/10 13:18:27;;;;;;;0.70;0.50;;;;;;;;;;5050905;28;20904;-77
2023/03/10 13:20:53;;;;;;;0.45;0.40;;;;;;;;;;5051032;28;20894;-77
2023/03/10 13:23:20;;;;;;;0.50;0.40;;;;;;;;;;5053337;28;20389;-77
2023/03/10 13:25:57;;;;;;;0.40;0.27;;;;;;;;;;5050967;28;20386;-77
2023/03/10 13:28:23;;;;;;;0.45;0.40;;;;;;;;;;5040844;28;20385;-77
2023/03/10 13:30:49;;;;;;;0.40;0.40;;;;;;;;;;5050957;28;20490;-77
2023/03/10 13:33:23;;;;;;;0.30;0.28;;;;;;;;;;5050708;28;20475;-78
2023/03/10 13:35:49;;;;;;;0.20;0.20;;;;;;;;;;5050873;28;20374;-77
2023/03/10 13:38:25;;;;;;;0.67;0.50;;;;;;;;;;5050794;28;20381;-78
2023/03/10 13:41:02;;;;;;;0.60;0.40;;;;;;;;;;5042869;28;20431;-77
2023/03/10 13:43:30;;;;;;;0.68;0.30;;;;;;;;;;5053920;28;20865;-78
2023/03/10 13:45:57;;;;;;;1.58;0.45;;;;;;;;;;5054473;28;20443;-77
2023/03/10 13:48:24;;;;;;;1.60;0.70;;;;;;;;;;5054530;28;20392;-80
2023/03/10 13:51:11;;;;;;;1.25;1.05;;;;;;;;;;5054048;28;20427;-79
2023/03/10 13:53:36;;;;;;;0.40;0.40;;;;;;;;;;5043276;28;20491;-79
2023/03/10 13:56:14;;;;;;;1.30;1.20;;;;;;;;;;5053654;28;20473;-78
2023/03/10 13:58:40;;;;;;;1.10;0.70;;;;;;;;;;5054321;28;20379;-79
2023/03/10 14:01:06;;;;;;;0.40;0.30;;;;;;;;;;5054236;28;20641;-77
2023/03/10 14:03:34;;;;;;;0.20;0.20;;;;;;;;;;5049393;28;20898;-77
2023/03/10 14:05:59;;;;;;;0.40;0.20;;;;;;;;;;5052683;28;20393;-78
2023/03/10 14:08:31;;;;;;;0.30;0.30;;;;;;;;;;5052638;28;20459;-78
2023/03/10 14:11:16;;;;;;;0.50;0.40;;;;;;;;;;5053758;28;20393;-78
2023/03/10 14:13:43;;;;;;;1.08;0.50;;;;;;;;;;5053904;28;20405;-77
2023/03/10 14:16:10;;;;;;;0.73;0.50;;;;;;;;;;5053520;28;20393;-77
2023/03/10 14:18:37;;;;;;;0.80;0.30;;;;;;;;;;5053600;28;20389;-77
2023/03/10 14:21:21;;;;;;;0.70;0.35;;;;;;;;;;5053794;28;20476;-77
2023/03/10 14:23:47;;;;;;;0.35;0.10;;;;;;;;;;5053446;28;20809;-79
2023/03/10 14:26:15;;;;;;;1.30;0.20;;;;;;;;;;5053628;28;20481;-77
2023/03/10 14:28:41;;;;;;;0.35;0.20;;;;;;;;;;5045071;28;20464;-79
2023/03/10 14:31:21;;;;;;;1.30;0.20;;;;;;;;;;5052417;28;20390;-80
2023/03/10 14:33:48;;;;;;;0.50;0.40;;;;;;;;;;5053378;28;20397;-79
2023/03/10 14:36:14;;;;;;;1.20;0.40;;;;;;;;;;5053418;28;20404;-79
2023/03/10 14:38:40;;;;;;;0.40;0.30;;;;;;;;;;5053524;28;20373;-79
2023/03/10 14:41:06;;;;;;;0.50;0.30;;;;;;;;;;5053518;28;20936;-78
2023/03/10 14:43:32;;;;;;;1.20;0.50;;;;;;;;;;5053439;28;20416;-79
2023/03/10 14:46:00;;;;;;;1.10;0.40;;;;;;;;;;5053148;28;20393;-79
2023/03/10 14:48:27;;;;;;;0.47;0.40;;;;;;;;;;5053420;28;20385;-80